Terminal Aerodrome Forecast
Issued by NWS

Home | Current Version | Previous Version | Text Only | Print | Product List | Glossary On
Versions: 1 2 3 4 5 6 7 8 9 10 11 12 13
000
FTUS42 TJSJ 220500
TAFISX
TAF
TISX 220522Z 2206/2306 04006KT P6SM FEW030
     FM221400 10012KT P6SM FEW025
     FM222300 08006KT P6SM FEW030=

USA.gov is the U.S. government's official web portal to all federal, state and local government web resources and services.